Terminal Aerodrome Forecast
Issued by NWS

Home | Current Version | Previous Version | Text Only | Print | Product List | Glossary Off
Versions: 1 2 3 4 5 6 7 8 9 10 11 12 13 14 15 16 17 18 19 20 21 22

000
FTUS43 KABR 271649 AAA
TAFATY
TAF AMD
KATY 271649Z 2717/2812 16007KT P6SM -SHRA VCTS BKN060CB OVC090
     FM272000 VRB06KT P6SM SCT070 OVC100
     FM272300 05008KT P6SM VCTS SCT060 BKN080CB OVC110
     FM280200 05006KT P6SM VCSH BKN110
     FM280400 05006KT P6SM SCT070 BKN120
     FM280800 02006KT P6SM VCSH BKN035 OVC070=

USA.gov is the U.S. government's official web portal to all federal, state and local government web resources and services.